createdAt,value
2023-02-05T00:01:27.837Z,99283.72
2023-02-05T00:03:54.363Z,99289.78
2023-02-05T00:06:20.885Z,99290.69
2023-02-05T00:08:47.542Z,99294.16
2023-02-05T00:11:16.357Z,99292.41
2023-02-05T00:13:43.331Z,99291.53
2023-02-05T00:16:17.774Z,99290.66
2023-02-05T00:18:44.897Z,99282.09
2023-02-05T00:21:12.103Z,99280.41
2023-02-05T00:23:40.962Z,99276.91
2023-02-05T00:26:08.614Z,99277.00
2023-02-05T00:28:36.719Z,99280.44
2023-02-05T00:31:12.026Z,99281.34
2023-02-05T00:33:38.727Z,99279.47
2023-02-05T00:36:05.960Z,99282.03
2023-02-05T00:38:32.716Z,99282.94
2023-02-05T00:40:59.619Z,99284.66
2023-02-05T00:43:26.152Z,99290.56
2023-02-05T00:45:52.647Z,99287.25
2023-02-05T00:48:19.176Z,99283.81
2023-02-05T00:50:48.593Z,99283.00
2023-02-05T00:53:15.516Z,99285.53
2023-02-05T00:55:44.758Z,99295.81
2023-02-05T00:58:11.624Z,99284.69
2023-02-05T01:00:38.544Z,99297.53
2023-02-05T01:03:05.524Z,99301.84
2023-02-05T01:05:34.448Z,99296.69
2023-02-05T01:08:01.058Z,99295.88
2023-02-05T01:10:30.128Z,99283.94
2023-02-05T01:12:56.678Z,99288.16
2023-02-05T01:15:23.316Z,99288.13
2023-02-05T01:17:50.093Z,99279.56
2023-02-05T01:20:16.759Z,99288.16
2023-02-05T01:22:43.275Z,99288.16
2023-02-05T01:25:10.382Z,99289.09
2023-02-05T01:27:36.952Z,99283.09
2023-02-05T01:30:05.634Z,99273.63
2023-02-05T01:32:32.437Z,99285.63
2023-02-05T01:34:58.931Z,99283.88
2023-02-05T01:37:25.456Z,99282.97
2023-02-05T01:39:51.998Z,99281.38
2023-02-05T01:42:22.160Z,99284.00
2023-02-05T01:45:22.682Z,99279.75
2023-02-05T01:47:50.018Z,99285.78
2023-02-05T01:50:19.332Z,99285.75
2023-02-05T01:52:46.149Z,99292.66
2023-02-05T01:55:13.485Z,99284.91
2023-02-05T01:57:42.725Z,99286.69
2023-02-05T02:00:10.525Z,99277.28
2023-02-05T02:02:38.204Z,99278.97
2023-02-05T02:05:16.317Z,99278.06
2023-02-05T02:07:43.187Z,99271.25
2023-02-05T02:10:12.566Z,99275.56
2023-02-05T02:12:42.067Z,99279.88
2023-02-05T02:15:12.790Z,99280.75
2023-02-05T02:17:42.198Z,99285.03
2023-02-05T02:20:16.526Z,99284.19
2023-02-05T02:22:55.192Z,99286.75
2023-02-05T02:25:42.987Z,99284.22
2023-02-05T02:28:35.346Z,99279.91
2023-02-05T02:31:12.409Z,99281.66
2023-02-05T02:33:50.061Z,99281.66
2023-02-05T02:36:25.206Z,99280.78
2023-02-05T02:39:00.143Z,99280.78
2023-02-05T02:41:40.024Z,99276.53
2023-02-05T02:44:19.143Z,99269.72
2023-02-05T02:46:51.558Z,99271.41
2023-02-05T02:49:24.615Z,99267.13
2023-02-05T02:51:52.274Z,99272.25
2023-02-05T02:54:25.121Z,99270.56
2023-02-05T02:56:52.676Z,99273.97
2023-02-05T02:59:23.239Z,99268.84
2023-02-05T03:01:55.107Z,99274.81
2023-02-05T03:04:46.673Z,99268.84
2023-02-05T03:07:31.534Z,99264.50
2023-02-05T03:10:07.783Z,99267.94
2023-02-05T03:12:34.431Z,99268.81
2023-02-05T03:15:01.195Z,99264.53
2023-02-05T03:17:29.340Z,99261.09
2023-02-05T03:20:24.632Z,99254.28
2023-02-05T03:22:51.256Z,99260.28
2023-02-05T03:25:21.033Z,99248.31
2023-02-05T03:27:48.730Z,99245.72
2023-02-05T03:30:15.603Z,99249.13
2023-02-05T03:32:51.013Z,99247.38
2023-02-05T03:35:29.606Z,99247.44
2023-02-05T03:38:02.418Z,99240.56
2023-02-05T03:40:53.863Z,99243.09
2023-02-05T03:43:25.038Z,99238.00
2023-02-05T03:45:59.135Z,99231.16
2023-02-05T03:48:34.860Z,99222.59
2023-02-05T03:51:16.696Z,99217.47
2023-02-05T03:54:04.068Z,99210.59
2023-02-05T03:56:39.268Z,99214.88
2023-02-05T03:59:09.574Z,99211.38
2023-02-05T04:01:36.266Z,99205.44
2023-02-05T04:04:05.565Z,99210.63
2023-02-05T04:06:34.295Z,99213.22
2023-02-05T04:09:00.877Z,99211.53
2023-02-05T04:11:27.342Z,99205.53
2023-02-05T04:13:56.115Z,99210.63
2023-02-05T04:16:22.657Z,99212.34
2023-02-05T04:18:49.131Z,99208.84
2023-02-05T04:21:15.619Z,99212.38
2023-02-05T04:23:42.068Z,99201.25
2023-02-05T04:26:08.580Z,99209.81
2023-02-05T04:28:35.101Z,99210.69
2023-02-05T04:31:01.850Z,99209.81
2023-02-05T04:33:28.325Z,99203.84
2023-02-05T04:35:58.772Z,99204.72
2023-02-05T04:38:25.236Z,99204.72
2023-02-05T04:40:51.770Z,99201.31
2023-02-05T04:43:18.210Z,99197.88
2023-02-05T04:45:44.941Z,99199.59
2023-02-05T04:48:11.674Z,99194.47
2023-02-05T04:50:38.994Z,99197.03
2023-02-05T04:53:08.192Z,99193.63
2023-02-05T04:55:35.030Z,99188.47
2023-02-05T04:58:01.732Z,99190.22
2023-02-05T05:00:28.193Z,99193.63
2023-02-05T05:02:54.800Z,99198.75
2023-02-05T05:05:21.227Z,99201.28
2023-02-05T05:07:48.775Z,99195.34
2023-02-05T05:10:15.301Z,99190.19
2023-02-05T05:12:41.757Z,99190.19
2023-02-05T05:15:08.570Z,99193.63
2023-02-05T05:17:35.410Z,99191.03
2023-02-05T05:20:02.240Z,99196.16
2023-02-05T05:22:28.706Z,99191.91
2023-02-05T05:24:57.595Z,99183.34
2023-02-05T05:27:24.879Z,99187.63
2023-02-05T05:29:51.359Z,99183.34
2023-02-05T05:32:17.976Z,99185.91
2023-02-05T05:34:44.621Z,99184.19
2023-02-05T05:37:13.349Z,99175.66
2023-02-05T05:39:58.512Z,99179.94
2023-02-05T05:42:43.339Z,99183.34
2023-02-05T05:45:09.856Z,99179.09
2023-02-05T05:47:36.399Z,99171.38
2023-02-05T05:50:03.433Z,99168.81
2023-02-05T05:52:32.282Z,99173.00
2023-02-05T05:54:59.006Z,99170.50
2023-02-05T05:57:25.972Z,99167.09
2023-02-05T05:59:52.452Z,99167.97
2023-02-05T06:02:18.899Z,99176.50
2023-02-05T06:04:45.881Z,99168.81
2023-02-05T06:07:12.368Z,99169.69
2023-02-05T06:09:38.882Z,99175.63
2023-02-05T06:12:05.517Z,99181.66
2023-02-05T06:14:32.115Z,99175.66
2023-02-05T06:16:58.652Z,99179.06
2023-02-05T06:19:25.200Z,99181.66
2023-02-05T06:21:51.772Z,99189.31
2023-02-05T06:24:18.286Z,99191.88
2023-02-05T06:26:44.747Z,99185.91
2023-02-05T06:29:11.205Z,99192.75
2023-02-05T06:31:37.776Z,99187.63
2023-02-05T06:34:04.277Z,99192.78
2023-02-05T06:36:30.713Z,99185.06
2023-02-05T06:38:57.229Z,99184.19
2023-02-05T06:41:23.773Z,99191.88
2023-02-05T06:43:50.294Z,99198.72
2023-02-05T06:46:16.838Z,99199.59
2023-02-05T06:48:43.319Z,99195.31
2023-02-05T06:51:09.834Z,99194.47
2023-02-05T06:53:36.347Z,99197.03
2023-02-05T06:56:02.859Z,99196.16
2023-02-05T06:58:32.362Z,99212.38
2023-02-05T07:00:58.860Z,99216.66
2023-02-05T07:03:25.500Z,99211.56
2023-02-05T07:05:51.959Z,99216.69
2023-02-05T07:08:18.532Z,99219.25
2023-02-05T07:10:45.077Z,99214.97
2023-02-05T07:13:13.973Z,99215.00
2023-02-05T07:15:40.493Z,99211.53
2023-02-05T07:18:06.955Z,99214.97
2023-02-05T07:20:33.471Z,99206.41
2023-02-05T07:23:00.434Z,99210.66
2023-02-05T07:25:26.999Z,99203.78
2023-02-05T07:27:53.678Z,99207.19
2023-02-05T07:30:20.298Z,99210.66
2023-02-05T07:32:46.797Z,99208.94
2023-02-05T07:35:13.356Z,99219.19
2023-02-05T07:37:39.967Z,99222.56
2023-02-05T07:40:09.515Z,99216.63
2023-02-05T07:42:36.139Z,99227.72
2023-02-05T07:45:03.014Z,99219.97
2023-02-05T07:47:29.647Z,99226.00
2023-02-05T07:49:58.588Z,99224.16
2023-02-05T07:52:25.255Z,99212.22
2023-02-05T07:54:51.903Z,99218.25
2023-02-05T07:57:18.500Z,99213.91
2023-02-05T07:59:45.055Z,99203.56
2023-02-05T08:02:12.141Z,99208.56
2023-02-05T08:04:38.754Z,99201.72
2023-02-05T08:07:05.431Z,99199.16
2023-02-05T08:09:32.196Z,99197.22
2023-02-05T08:11:58.795Z,99196.31
2023-02-05T08:14:25.508Z,99197.97
2023-02-05T08:16:52.084Z,99190.31
2023-02-05T08:19:18.682Z,99199.81
2023-02-05T08:21:45.457Z,99188.63
2023-02-05T08:24:12.126Z,99190.19
2023-02-05T08:26:39.773Z,99202.97
2023-02-05T08:29:08.810Z,99203.72
2023-02-05T08:31:35.886Z,99206.69
2023-02-05T08:34:03.247Z,99202.25
2023-02-05T08:36:30.459Z,99198.78
2023-02-05T08:38:57.117Z,99205.47
2023-02-05T08:41:23.760Z,99206.69
2023-02-05T08:43:51.187Z,99215.44
2023-02-05T08:46:21.352Z,99207.78
2023-02-05T08:48:49.017Z,99214.63
2023-02-05T08:51:16.470Z,99210.47
2023-02-05T08:53:43.144Z,99211.31
2023-02-05T08:56:10.892Z,99205.78
2023-02-05T08:58:39.004Z,99196.88
2023-02-05T09:01:14.778Z,99187.81
2023-02-05T09:03:44.565Z,99183.28
2023-02-05T09:06:14.737Z,99176.22
2023-02-05T09:08:42.039Z,99177.16
2023-02-05T09:11:08.730Z,99157.19
2023-02-05T09:13:35.302Z,99159.63
2023-02-05T09:16:02.241Z,99158.31
2023-02-05T09:18:28.743Z,99162.31
2023-02-05T09:20:55.271Z,99161.13
2023-02-05T09:23:21.929Z,99156.00
2023-02-05T09:25:48.903Z,99159.28
2023-02-05T09:28:15.827Z,99160.19
2023-02-05T09:30:44.978Z,99159.19
2023-02-05T09:33:12.426Z,99164.53
2023-02-05T09:35:39.377Z,99165.47
2023-02-05T09:38:05.932Z,99168.28
2023-02-05T09:40:42.961Z,99153.97
2023-02-05T09:43:15.290Z,99157.81
2023-02-05T09:45:47.868Z,99151.03
2023-02-05T09:48:22.698Z,99147.72
2023-02-05T09:50:52.887Z,99156.94
2023-02-05T09:53:21.583Z,99152.31
2023-02-05T09:55:48.587Z,99155.16
2023-02-05T09:58:19.436Z,99148.00
2023-02-05T10:00:48.844Z,99130.91
2023-02-05T10:03:28.674Z,99125.16
2023-02-05T10:06:10.902Z,99125.06
2023-02-05T10:09:03.258Z,99125.19
2023-02-05T10:12:14.431Z,99112.59
2023-02-05T10:15:19.558Z,99108.22
2023-02-05T10:17:52.046Z,99101.13
2023-02-05T10:20:47.919Z,99089.44
2023-02-05T10:23:23.841Z,99096.84
2023-02-05T10:26:08.913Z,99085.03
2023-02-05T10:28:57.328Z,99090.22
2023-02-05T10:31:40.164Z,99077.22
2023-02-05T10:34:25.419Z,99080.41
2023-02-05T10:36:56.177Z,99069.78
2023-02-05T10:39:28.794Z,99066.09
2023-02-05T10:41:58.269Z,99046.19
2023-02-05T10:44:33.086Z,99038.47
2023-02-05T10:47:14.514Z,99034.50
2023-02-05T10:49:54.638Z,99028.69
2023-02-05T10:52:21.841Z,99020.06
2023-02-05T10:54:48.338Z,99023.03
2023-02-05T10:57:20.958Z,99017.94
2023-02-05T10:59:57.014Z,99015.66
2023-02-05T11:02:32.462Z,99022.44
2023-02-05T11:05:06.219Z,99021.91
2023-02-05T11:07:35.592Z,99021.28
2023-02-05T11:10:32.133Z,99012.78
2023-02-05T11:13:04.486Z,99006.78
2023-02-05T11:15:33.392Z,99006.72
2023-02-05T11:18:09.010Z,98998.84
2023-02-05T11:20:38.581Z,98998.22
2023-02-05T11:23:25.242Z,98994.84
2023-02-05T11:25:54.890Z,98992.50
2023-02-05T11:28:35.657Z,98991.88
2023-02-05T11:31:25.276Z,98994.09
2023-02-05T11:33:52.659Z,99002.13
2023-02-05T11:36:24.047Z,99000.56
2023-02-05T11:38:57.177Z,99009.53
2023-02-05T11:41:55.012Z,99007.50
2023-02-05T11:44:24.212Z,99012.06
2023-02-05T11:46:57.420Z,99009.88
2023-02-05T11:49:31.174Z,99001.28
2023-02-05T11:51:59.070Z,99002.34
2023-02-05T11:54:33.355Z,99001.53
2023-02-05T11:57:07.765Z,99001.16
2023-02-05T11:59:35.686Z,99007.41
2023-02-05T12:02:30.304Z,99003.41
2023-02-05T12:05:07.503Z,99000.63
2023-02-05T12:07:51.260Z,98997.38
2023-02-05T12:10:43.976Z,98985.50
2023-02-05T12:13:16.726Z,98982.22
2023-02-05T12:15:53.913Z,98984.81
2023-02-05T12:18:44.732Z,98986.97
2023-02-05T12:21:23.286Z,98977.72
2023-02-05T12:24:40.584Z,98973.84
2023-02-05T12:27:40.652Z,98979.47
2023-02-05T12:30:25.377Z,98979.56
2023-02-05T12:33:12.069Z,98977.53
2023-02-05T12:35:58.284Z,98973.31
2023-02-05T12:38:32.159Z,98970.09
2023-02-05T12:41:01.998Z,98976.53
2023-02-05T12:43:46.408Z,98983.19
2023-02-05T12:46:28.189Z,98968.75
2023-02-05T12:49:13.130Z,98977.94
2023-02-05T12:52:11.046Z,98966.78
2023-02-05T12:55:10.091Z,98961.84
2023-02-05T12:57:49.795Z,98961.38
2023-02-05T13:00:22.985Z,98957.06
2023-02-05T13:03:06.268Z,98954.56
2023-02-05T13:05:54.831Z,98955.31
2023-02-05T13:08:36.542Z,98948.91
2023-02-05T13:11:09.071Z,98950.81
2023-02-05T13:13:45.428Z,98951.31
2023-02-05T13:16:18.989Z,98953.88
2023-02-05T13:19:26.716Z,98945.44
2023-02-05T13:22:15.054Z,98944.97
2023-02-05T13:25:14.513Z,98945.72
2023-02-05T13:28:03.869Z,98943.78
2023-02-05T13:30:50.531Z,98953.28
2023-02-05T13:33:19.285Z,98950.94
2023-02-05T13:36:03.632Z,98946.72
2023-02-05T13:38:56.604Z,98942.13
2023-02-05T13:41:42.969Z,98942.94
2023-02-05T13:44:28.276Z,98936.97
2023-02-05T13:47:05.365Z,98938.03
2023-02-05T13:50:05.936Z,98937.03
2023-02-05T13:52:49.132Z,98936.72
2023-02-05T13:55:43.611Z,98943.25
2023-02-05T13:58:28.475Z,98938.59
2023-02-05T14:01:02.981Z,98932.81
2023-02-05T14:03:35.665Z,98932.81
2023-02-05T14:06:12.997Z,98922.66
2023-02-05T14:08:40.034Z,98922.38
2023-02-05T14:11:06.998Z,98919.75
2023-02-05T14:13:34.754Z,98914.88
2023-02-05T14:16:24.538Z,98919.03
2023-02-05T14:19:18.746Z,98923.13
2023-02-05T14:21:45.171Z,98915.81
2023-02-05T14:24:44.357Z,98916.84
2023-02-05T14:27:40.301Z,98917.47
2023-02-05T14:30:39.297Z,98921.16
2023-02-05T14:33:25.756Z,98920.19
2023-02-05T14:35:57.630Z,98920.81
2023-02-05T14:38:34.017Z,98909.28
2023-02-05T14:41:13.723Z,98911.06
2023-02-05T14:43:42.149Z,98917.97
2023-02-05T14:46:30.846Z,98918.78
2023-02-05T14:49:00.315Z,98923.94
2023-02-05T14:51:32.148Z,98930.19
2023-02-05T14:54:04.481Z,98925.25
2023-02-05T14:56:43.965Z,98924.31
2023-02-05T14:59:29.615Z,98919.66
2023-02-05T15:01:58.160Z,98925.72
2023-02-05T15:04:52.751Z,98925.22
2023-02-05T15:07:25.407Z,98930.03
2023-02-05T15:10:01.719Z,98922.41
2023-02-05T15:12:37.312Z,98930.03
2023-02-05T15:15:33.192Z,98930.66
2023-02-05T15:18:15.739Z,98929.47
2023-02-05T15:20:47.551Z,98938.81
2023-02-05T15:23:21.001Z,98926.91
2023-02-05T15:25:54.546Z,98938.41
2023-02-05T15:28:42.249Z,98932.38
2023-02-05T15:31:11.854Z,98937.94
2023-02-05T15:34:21.737Z,98939.50
2023-02-05T15:37:09.985Z,98938.22
2023-02-05T15:39:46.645Z,98930.47
2023-02-05T15:42:23.869Z,98929.63
2023-02-05T15:44:50.498Z,98931.25
2023-02-05T15:47:26.436Z,98921.22
2023-02-05T15:49:57.895Z,98936.06
2023-02-05T15:52:29.884Z,98935.78
2023-02-05T15:55:00.302Z,98933.47
2023-02-05T15:57:30.024Z,98936.25
2023-02-05T15:59:58.246Z,98935.19
2023-02-05T16:02:29.339Z,98942.28
2023-02-05T16:05:07.575Z,98941.75
2023-02-05T16:07:42.006Z,98946.00
2023-02-05T16:10:20.733Z,98947.31
2023-02-05T16:13:05.572Z,98951.13
2023-02-05T16:15:56.790Z,98953.09
2023-02-05T16:18:47.244Z,98956.50
2023-02-05T16:21:22.733Z,98963.56
2023-02-05T16:24:02.413Z,98963.63
2023-02-05T16:26:37.479Z,98972.63
2023-02-05T16:29:11.623Z,98973.50
2023-02-05T16:31:47.583Z,98966.63
2023-02-05T16:34:19.176Z,98964.03
2023-02-05T16:36:48.819Z,98968.47
2023-02-05T16:39:38.376Z,98959.81
2023-02-05T16:42:14.384Z,98973.03
2023-02-05T16:44:42.043Z,98978.44
2023-02-05T16:47:20.258Z,98979.34
2023-02-05T16:49:48.601Z,98990.59
2023-02-05T16:52:30.935Z,98994.97
2023-02-05T16:54:59.722Z,98994.25
2023-02-05T16:57:38.596Z,98992.78
2023-02-05T17:00:27.842Z,98997.25
2023-02-05T17:03:01.266Z,98995.53
2023-02-05T17:05:31.720Z,98997.38
2023-02-05T17:08:01.755Z,98998.44
2023-02-05T17:10:31.269Z,98994.13
2023-02-05T17:13:05.470Z,98987.47
2023-02-05T17:15:35.283Z,98996.94
2023-02-05T17:18:21.262Z,98982.53
2023-02-05T17:20:48.620Z,98989.22
2023-02-05T17:23:18.674Z,98992.78
2023-02-05T17:25:55.671Z,98989.34
2023-02-05T17:28:29.879Z,98998.00
2023-02-05T17:31:01.898Z,98994.59
2023-02-05T17:33:29.198Z,98989.59
2023-02-05T17:35:56.238Z,98991.31
2023-02-05T17:38:25.939Z,98990.56
2023-02-05T17:41:12.591Z,98989.59
2023-02-05T17:43:39.288Z,98985.53
2023-02-05T17:46:15.199Z,98985.53
2023-02-05T17:48:42.387Z,98985.53
2023-02-05T17:51:18.119Z,98985.53
2023-02-05T17:53:44.713Z,98992.84
2023-02-05T17:56:16.102Z,59665.81
2023-02-05T17:58:45.873Z,59665.81
2023-02-05T18:01:14.676Z,59665.81
2023-02-05T18:03:41.490Z,59665.81
2023-02-05T18:06:12.492Z,59665.81
2023-02-05T18:08:40.651Z,59665.81
2023-02-05T18:11:10.202Z,59665.81
2023-02-05T18:13:37.204Z,59665.81
2023-02-05T18:16:04.541Z,59665.81
2023-02-05T18:18:31.965Z,59665.81
2023-02-05T18:20:59.216Z,59665.81
2023-02-05T18:23:28.998Z,59665.81
2023-02-05T18:25:59.424Z,59665.81
2023-02-05T18:28:26.492Z,59665.81
2023-02-05T18:31:08.467Z,59665.81
2023-02-05T18:33:35.905Z,59665.81
2023-02-05T18:36:05.150Z,59665.81
2023-02-05T18:38:34.042Z,59665.81
2023-02-05T18:41:23.272Z,59665.81
2023-02-05T18:43:53.932Z,59665.81
2023-02-05T18:46:21.869Z,59665.81
2023-02-05T18:48:51.451Z,59665.81
2023-02-05T18:51:23.056Z,59665.81
2023-02-05T18:53:52.929Z,59665.81
2023-02-05T18:56:27.604Z,59665.81
2023-02-05T18:59:01.481Z,59665.81
2023-02-05T19:01:30.474Z,59665.81
2023-02-05T19:04:01.923Z,59665.81
2023-02-05T19:06:28.972Z,59665.81
2023-02-05T19:08:57.074Z,59665.81
2023-02-05T19:11:25.089Z,59665.81
2023-02-05T19:13:59.313Z,59665.81
2023-02-05T19:16:27.706Z,59665.81
2023-02-05T19:18:54.859Z,59665.81
2023-02-05T19:21:23.296Z,59665.81
2023-02-05T19:23:54.752Z,59665.81
2023-02-05T19:26:24.165Z,59665.81
2023-02-05T19:28:59.529Z,59665.81
2023-02-05T19:31:29.151Z,59665.81
2023-02-05T19:33:57.252Z,59665.81
2023-02-05T19:36:25.294Z,59665.81
2023-02-05T19:38:52.086Z,59665.81
2023-02-05T19:41:23.989Z,59665.81
2023-02-05T19:43:53.169Z,59665.81
2023-02-05T19:46:22.540Z,59665.81
2023-02-05T19:48:49.165Z,59665.81
2023-02-05T19:51:16.323Z,59665.81
2023-02-05T19:53:45.336Z,59665.81
2023-02-05T19:56:15.208Z,59665.81
2023-02-05T19:58:44.303Z,59665.81
2023-02-05T20:01:16.070Z,59665.81
2023-02-05T20:03:43.182Z,59665.81
2023-02-05T20:06:11.533Z,59665.81
2023-02-05T20:08:40.960Z,59665.81
2023-02-05T20:11:07.607Z,59665.81
2023-02-05T20:13:36.377Z,59665.81
2023-02-05T20:16:10.685Z,59665.81
2023-02-05T20:18:38.793Z,59665.81
2023-02-05T20:21:13.252Z,59665.81
2023-02-05T20:23:40.857Z,59665.81
2023-02-05T20:26:08.849Z,59665.81
2023-02-05T20:28:57.794Z,59665.81
2023-02-05T20:31:34.805Z,59665.81
2023-02-05T20:34:07.553Z,59665.81
2023-02-05T20:36:35.195Z,59665.81
2023-02-05T20:39:07.643Z,59665.81
2023-02-05T20:41:36.729Z,59665.81
2023-02-05T20:44:03.467Z,59665.81
2023-02-05T20:46:31.218Z,59665.81
2023-02-05T20:48:59.391Z,59665.81
2023-02-05T20:51:26.192Z,59665.81
2023-02-05T20:53:58.103Z,59665.81
2023-02-05T20:56:26.619Z,59665.81
2023-02-05T20:59:03.050Z,59665.81
2023-02-05T21:01:31.823Z,59665.81
2023-02-05T21:04:04.136Z,59665.81
2023-02-05T21:06:33.618Z,59665.81
2023-02-05T21:09:00.249Z,59665.81
2023-02-05T21:11:28.256Z,59665.81
2023-02-05T21:13:55.362Z,59665.81
2023-02-05T21:16:24.135Z,59665.81
2023-02-05T21:18:53.837Z,59665.81
2023-02-05T21:21:26.568Z,59665.81
2023-02-05T21:23:58.286Z,59665.81
2023-02-05T21:26:26.409Z,59665.81
2023-02-05T21:28:58.852Z,59665.81
2023-02-05T21:31:33.506Z,59665.81
2023-02-05T21:34:08.033Z,59665.81
2023-02-05T21:36:35.357Z,59665.81
2023-02-05T21:39:06.960Z,59665.81
2023-02-05T21:41:33.654Z,59665.81
2023-02-05T21:44:00.869Z,59665.81
2023-02-05T21:46:31.820Z,59665.81
2023-02-05T21:49:00.746Z,59665.81
2023-02-05T21:51:33.964Z,59665.81
2023-02-05T21:54:03.718Z,59665.81
2023-02-05T21:56:36.641Z,59665.81
2023-02-05T21:59:03.778Z,59665.81
2023-02-05T22:01:33.016Z,59665.81
2023-02-05T22:04:21.394Z,59665.81
2023-02-05T22:06:48.106Z,59665.81
2023-02-05T22:09:16.626Z,59665.81
2023-02-05T22:11:44.324Z,59665.81
2023-02-05T22:14:13.059Z,59665.81
2023-02-05T22:16:39.720Z,59665.81
2023-02-05T22:19:07.158Z,59665.81
2023-02-05T22:21:37.428Z,59665.81
2023-02-05T22:24:05.068Z,59665.81
2023-02-05T22:26:39.136Z,59665.81
2023-02-05T22:29:08.196Z,59665.81
2023-02-05T22:31:35.702Z,59665.81
2023-02-05T22:34:02.572Z,59665.81
2023-02-05T22:36:31.231Z,59665.81
2023-02-05T22:38:58.468Z,59665.81
2023-02-05T22:41:31.185Z,59665.81
2023-02-05T22:43:59.390Z,59665.81
2023-02-05T22:46:28.686Z,59665.81
2023-02-05T22:49:00.119Z,59665.81
2023-02-05T22:51:35.922Z,59665.81
2023-02-05T22:54:02.967Z,59665.81
2023-02-05T22:56:34.494Z,59665.81
2023-02-05T22:59:03.301Z,59665.81
2023-02-05T23:01:33.452Z,59665.81
2023-02-05T23:04:02.232Z,59665.81
2023-02-05T23:06:34.078Z,59665.81
2023-02-05T23:09:20.845Z,59665.81
2023-02-05T23:11:47.420Z,59665.81
2023-02-05T23:14:15.912Z,59665.81
2023-02-05T23:16:45.293Z,59665.81
2023-02-05T23:19:22.511Z,59665.81
2023-02-05T23:21:49.236Z,59665.81
2023-02-05T23:24:17.092Z,59665.81
2023-02-05T23:26:46.511Z,59665.81
2023-02-05T23:29:15.507Z,59665.81
2023-02-05T23:31:42.254Z,59665.81
2023-02-05T23:34:09.042Z,59665.81
2023-02-05T23:36:36.240Z,59665.81
2023-02-05T23:39:03.163Z,59665.81
2023-02-05T23:41:36.221Z,59665.81
2023-02-05T23:44:03.208Z,59665.81
2023-02-05T23:46:29.934Z,59665.81
2023-02-05T23:48:57.728Z,59665.81
2023-02-05T23:51:24.719Z,59665.81
2023-02-05T23:53:51.959Z,59665.81
2023-02-05T23:56:18.641Z,59665.81
2023-02-05T23:58:46.242Z,59665.81
